Time;durP1;ratioP1;P1;durP2;ratioP2;P2;SDS_P1;SDS_P2;PMS_P1;PMS_P2;Temp;Humidity;BMP_temperature;BMP_pressure;BME280_temperature;BME280_humidity;BME280_pressure;Samples;Min_cycle;Max_cycle;Signal;HPM_P1;HPM_P2
2022/07/10 00:04:39;;;;;;;2.03;0.60;;;;;;;18.75;81.73;102318.13;20892916;28;20041;-76
2022/07/10 00:14:41;;;;;;;1.20;0.50;;;;;;;18.56;81.58;102265.47;20893687;28;20048;-76
2022/07/10 00:24:42;;;;;;;1.23;0.50;;;;;;;18.53;81.25;102260.25;20892581;28;20055;-76
2022/07/10 00:34:44;;;;;;;1.70;0.70;;;;;;;18.72;81.31;102285.97;20891120;28;20048;-76
2022/07/10 00:44:46;;;;;;;3.10;0.60;;;;;;;18.72;81.25;102292.22;20888352;28;20045;-76
2022/07/10 00:54:50;;;;;;;1.80;0.70;;;;;;;18.72;81.09;102283.28;20889468;28;20403;-76
2022/07/10 01:04:55;;;;;;;1.20;0.45;;;;;;;18.71;80.97;102274.28;20888148;28;20041;-76
2022/07/10 01:14:58;;;;;;;1.70;0.57;;;;;;;18.61;80.89;102266.00;20870344;28;20099;-76
2022/07/10 01:25:00;;;;;;;1.55;0.55;;;;;;;18.70;80.81;102268.06;20869930;28;20059;-75
2022/07/10 01:35:01;;;;;;;1.83;0.52;;;;;;;18.69;80.65;102255.53;20886700;28;20057;-76
2022/07/10 01:45:07;;;;;;;1.63;0.43;;;;;;;18.68;80.27;102248.41;20885439;28;20076;-75
2022/07/10 01:55:08;;;;;;;1.95;0.55;;;;;;;18.48;80.54;102200.41;20884520;28;20045;-76
2022/07/10 02:05:10;;;;;;;1.38;0.65;;;;;;;18.67;80.30;102210.75;20910141;28;20404;-76
2022/07/10 02:15:11;;;;;;;1.95;0.40;;;;;;;18.67;80.27;102214.31;20964438;28;20051;-76
2022/07/10 02:25:13;;;;;;;0.80;0.40;;;;;;;18.25;80.06;102139.06;20963312;28;20040;-76
2022/07/10 02:35:14;;;;;;;1.33;0.40;;;;;;;18.65;80.07;102208.19;20965104;28;20044;-76
2022/07/10 02:45:16;;;;;;;1.08;0.40;;;;;;;18.65;80.18;102205.47;20946426;28;20048;-76
2022/07/10 02:55:18;;;;;;;1.10;0.47;;;;;;;18.44;79.87;102169.25;20962224;28;20132;-76
2022/07/10 03:05:20;;;;;;;1.95;0.70;;;;;;;18.65;79.90;102193.81;20950442;28;20044;-76
2022/07/10 03:15:21;;;;;;;1.20;0.43;;;;;;;18.63;79.80;102191.25;20963355;28;20053;-76
2022/07/10 03:25:23;;;;;;;1.45;0.52;;;;;;;18.53;79.64;102191.03;20962926;28;20428;-77
2022/07/10 03:35:25;;;;;;;2.22;0.70;;;;;;;18.61;78.86;102209.38;20840086;28;20057;-75
2022/07/10 03:45:27;;;;;;;6.72;1.00;;;;;;;18.39;75.65;102205.47;20887423;28;20135;-76
2022/07/10 03:55:29;;;;;;;3.97;0.75;;;;;;;17.92;75.84;102197.00;20960479;28;20052;-76
2022/07/10 04:05:31;;;;;;;6.43;1.15;;;;;;;17.66;76.56;102190.66;20945422;28;20131;-76
2022/07/10 04:15:32;;;;;;;4.38;1.00;;;;;;;17.46;76.85;102190.19;20958776;28;20098;-76
2022/07/10 04:25:34;;;;;;;3.80;1.02;;;;;;;17.33;78.07;102183.91;20974648;28;20106;-76
2022/07/10 04:35:35;;;;;;;3.85;0.65;;;;;;;17.29;78.09;102177.00;20972292;28;20443;-76
2022/07/10 04:45:40;;;;;;;3.65;1.08;;;;;;;17.08;78.16;102170.22;20970874;28;20045;-77
2022/07/10 04:55:41;;;;;;;5.27;0.97;;;;;;;17.06;78.65;102169.47;20967825;28;20041;-76
2022/07/10 05:05:43;;;;;;;5.15;1.05;;;;;;;17.19;78.70;102188.34;20891117;28;20085;-76
2022/07/10 05:15:48;;;;;;;4.22;1.05;;;;;;;17.18;79.27;102192.00;20878484;28;20056;-76
2022/07/10 05:25:49;;;;;;;4.43;0.90;;;;;;;17.19;80.15;102187.50;20859898;28;20045;-76
2022/07/10 05:35:51;;;;;;;3.97;1.30;;;;;;;17.16;80.75;102183.16;20880901;28;20140;-76
2022/07/10 05:45:52;;;;;;;4.82;1.10;;;;;;;17.23;81.56;102191.69;20872975;28;20051;-76
2022/07/10 05:56:01;;;;;;;4.90;1.45;;;;;;;17.18;82.30;102183.91;20879010;28;20083;-76
2022/07/10 06:06:02;;;;;;;5.47;0.98;;;;;;;17.24;83.32;102191.63;20881820;28;20049;-76
2022/07/10 06:16:04;;;;;;;5.70;1.55;;;;;;;17.27;84.53;102206.69;20872749;28;20118;-76
2022/07/10 06:26:06;;;;;;;6.65;1.20;;;;;;;17.32;84.93;102207.25;20840845;28;20135;-76
2022/07/10 06:36:08;;;;;;;4.72;1.20;;;;;;;17.34;86.03;102201.78;20855679;28;20437;-77
2022/07/10 06:46:09;;;;;;;4.22;1.45;;;;;;;17.34;86.14;102205.31;20860211;28;20055;-76
2022/07/10 06:56:13;;;;;;;4.68;1.10;;;;;;;17.19;87.84;102188.34;20863694;28;20099;-76
2022/07/10 07:06:15;;;;;;;6.97;1.40;;;;;;;17.37;89.54;102218.56;20860020;28;20052;-76
2022/07/10 07:16:19;;;;;;;2.60;0.90;;;;;;;17.38;90.57;102211.38;20870861;28;20443;-75
2022/07/10 07:26:21;;;;;;;1.30;0.90;;;;;;;17.48;91.11;102215.19;20868367;28;20448;-76
2022/07/10 07:36:23;;;;;;;3.67;1.20;;;;;;;17.50;89.87;102190.84;20822081;28;20050;-76
2022/07/10 07:46:24;;;;;;;5.93;1.63;;;;;;;17.76;89.21;102197.19;20838397;28;20067;-76
2022/07/10 07:56:26;;;;;;;2.75;1.05;;;;;;;17.87;88.51;102198.28;20864806;28;20053;-76
2022/07/10 08:06:27;;;;;;;4.25;1.10;;;;;;;17.94;87.81;102196.88;20833745;28;20389;-76
2022/07/10 08:16:29;;;;;;;2.30;0.88;;;;;;;17.99;87.46;102208.22;20823357;28;20056;-76
2022/07/10 08:26:30;;;;;;;1.98;0.88;;;;;;;18.03;87.13;102209.75;20854273;28;20056;-76
2022/07/10 08:36:32;;;;;;;2.22;0.85;;;;;;;18.05;87.04;102210.50;20869863;28;20052;-75
2022/07/10 08:46:45;;;;;;;1.15;0.70;;;;;;;18.01;86.91;102195.53;20885343;28;20049;-75
2022/07/10 08:56:47;;;;;;;2.15;0.98;;;;;;;18.01;87.16;102195.53;20889293;28;20076;-76
2022/07/10 09:06:51;;;;;;;1.70;0.60;;;;;;;18.16;87.23;102206.25;20885893;28;20448;-76
2022/07/10 09:16:53;;;;;;;1.90;0.75;;;;;;;18.19;87.27;102203.31;20841839;28;20064;-74
2022/07/10 09:27:01;;;;;;;2.95;0.88;;;;;;;18.22;87.14;102203.97;20864527;28;20067;-74
2022/07/10 09:37:27;;;;;;;2.33;1.08;;;;;;;18.27;87.09;102211.75;20871343;28;20049;-75
2022/07/10 09:47:29;;;;;;;1.95;0.60;;;;;;;18.28;87.02;102208.06;20885982;28;20056;-75
2022/07/10 09:57:31;;;;;;;2.85;0.68;;;;;;;18.34;86.89;102207.63;20858038;28;20055;-75
2022/07/10 10:07:34;;;;;;;2.85;0.85;;;;;;;18.33;87.09;102202.34;20865303;28;20094;-75
2022/07/10 10:17:36;;;;;;;3.30;0.70;;;;;;;18.37;87.41;102217.38;20871983;28;20045;-75
2022/07/10 10:27:37;;;;;;;1.58;0.60;;;;;;;18.38;87.43;102205.59;20881911;28;20076;-76
2022/07/10 10:37:43;;;;;;;0.95;0.45;;;;;;;18.38;87.74;102205.59;20898021;28;20053;-75
2022/07/10 10:48:04;;;;;;;2.40;0.50;;;;;;;18.40;87.64;102196.41;20902726;28;20091;-75
2022/07/10 10:58:27;;;;;;;2.05;0.55;;;;;;;18.42;87.74;102201.72;20841077;28;20105;-75
2022/07/10 11:08:37;;;;;;;0.88;0.40;;;;;;;18.44;87.79;102196.19;20851760;28;20375;-75
2022/07/10 11:18:39;;;;;;;0.93;0.50;;;;;;;18.44;87.73;102185.41;20884950;28;20409;-75
2022/07/10 11:28:55;;;;;;;0.60;0.60;;;;;;;18.45;87.82;102181.75;20898748;28;20451;-75
2022/07/10 11:39:07;;;;;;;0.73;0.47;;;;;;;18.00;87.74;102096.75;20885937;28;20140;-73
2022/07/10 11:49:10;;;;;;;1.42;0.60;;;;;;;18.51;87.80;102175.91;20902133;28;20094;-74
2022/07/10 11:59:13;;;;;;;1.10;0.52;;;;;;;18.53;88.08;102176.66;20914510;28;20091;-74
2022/07/10 12:09:20;;;;;;;1.05;0.60;;;;;;;18.43;88.03;102159.41;20801793;28;20049;-74
2022/07/10 12:19:33;;;;;;;0.85;0.45;;;;;;;18.50;88.07;102190.38;20837194;28;20122;-74
2022/07/10 12:29:34;;;;;;;2.83;0.60;;;;;;;18.45;88.24;102174.53;20865052;28;20049;-74
2022/07/10 12:39:48;;;;;;;1.27;0.57;;;;;;;18.56;88.58;102200.75;20868808;28;20045;-74
2022/07/10 12:50:03;;;;;;;2.22;0.60;;;;;;;18.57;88.81;102207.00;20885557;28;20878;-74
2022/07/10 13:00:06;;;;;;;1.25;0.88;;;;;;;18.57;89.11;102207.00;20837071;28;20049;-74
2022/07/10 13:10:08;;;;;;;1.80;0.70;;;;;;;18.58;89.38;102204.19;20830156;28;20048;-74
2022/07/10 13:20:10;;;;;;;1.10;0.60;;;;;;;18.60;89.82;102196.84;20863786;28;20061;-73
2022/07/10 13:30:11;;;;;;;1.08;0.60;;;;;;;18.61;89.74;102195.88;20881420;28;20045;-74
2022/07/10 13:40:13;;;;;;;2.05;0.60;;;;;;;18.62;89.36;102197.63;20864533;28;20036;-75
2022/07/10 13:50:14;;;;;;;1.55;0.70;;;;;;;18.62;89.50;102194.91;20864514;28;20068;-73
2022/07/10 14:00:16;;;;;;;1.67;0.68;;;;;;;18.65;89.55;102191.13;20860926;28;20053;-74
2022/07/10 14:10:17;;;;;;;1.05;0.70;;;;;;;18.65;89.66;102189.28;20793202;28;20094;-74
2022/07/10 14:20:19;;;;;;;1.67;0.70;;;;;;;18.65;89.59;102173.13;20856978;28;20041;-74
2022/07/10 14:30:21;;;;;;;2.05;0.60;;;;;;;18.66;89.67;102169.44;20858759;28;20064;-74
2022/07/10 14:40:22;;;;;;;0.90;0.60;;;;;;;18.67;89.56;102165.78;20859638;28;20110;-75
2022/07/10 14:50:24;;;;;;;0.75;0.70;;;;;;;18.67;89.63;102160.38;20849393;28;20212;-74
2022/07/10 15:00:25;;;;;;;0.65;0.60;;;;;;;18.67;89.47;102152.28;20859841;28;20049;-74
2022/07/10 15:10:27;;;;;;;0.95;0.50;;;;;;;18.67;89.73;102152.28;20862311;28;20582;-74
2022/07/10 15:20:29;;;;;;;1.50;0.80;;;;;;;18.67;89.62;102144.19;20853918;28;20049;-74
2022/07/10 15:30:31;;;;;;;2.92;1.10;;;;;;;18.67;89.65;102125.31;20846350;28;20447;-74
2022/07/10 15:40:32;;;;;;;2.17;0.80;;;;;;;18.69;89.52;102119.78;20855779;28;20045;-74
2022/07/10 15:50:34;;;;;;;2.00;0.90;;;;;;;18.68;89.77;102112.66;20827007;28;20509;-74
2022/07/10 16:00:36;;;;;;;2.65;0.93;;;;;;;18.68;89.88;102113.53;20852483;28;20073;-74
2022/07/10 16:10:37;;;;;;;2.80;0.90;;;;;;;18.67;89.87;102109.13;20767660;28;20042;-74
2022/07/10 16:20:39;;;;;;;1.35;0.90;;;;;;;18.67;90.78;102095.63;20903953;28;20049;-75
2022/07/10 16:30:40;;;;;;;1.98;1.10;;;;;;;18.69;91.63;102098.22;20892881;28;20518;-75
2022/07/10 16:40:43;;;;;;;2.05;0.98;;;;;;;18.61;92.40;102074.50;20919735;28;20080;-77
2022/07/10 16:50:44;;;;;;;2.53;1.00;;;;;;;18.74;92.29;102084.41;20912117;28;20053;-76
2022/07/10 17:00:46;;;;;;;3.35;1.13;;;;;;;18.76;92.12;102074.34;20917219;28;20058;-76
2022/07/10 17:10:48;;;;;;;2.47;1.20;;;;;;;18.74;92.44;102066.34;20904349;28;20095;-74
2022/07/10 17:20:49;;;;;;;2.00;0.90;;;;;;;18.70;92.26;102068.44;20904825;28;20051;-74
2022/07/10 17:30:51;;;;;;;3.15;1.20;;;;;;;18.65;92.27;102054.44;20867856;28;20493;-75
2022/07/10 17:40:53;;;;;;;2.65;1.13;;;;;;;18.66;92.12;102055.28;20897916;28;20052;-74
2022/07/10 17:50:54;;;;;;;3.15;0.90;;;;;;;18.64;92.26;102052.72;20912774;28;20059;-75
2022/07/10 18:00:56;;;;;;;1.67;1.00;;;;;;;18.62;92.19;102045.69;20887073;28;20053;-74
2022/07/10 18:10:59;;;;;;;4.10;1.23;;;;;;;18.57;92.02;102031.69;20826531;28;20107;-74
2022/07/10 18:21:00;;;;;;;1.75;0.90;;;;;;;18.61;91.87;102028.66;20795436;28;20045;-74
2022/07/10 18:31:02;;;;;;;5.22;1.08;;;;;;;18.49;91.82;102003.47;20797396;28;20049;-75
2022/07/10 18:41:05;;;;;;;3.03;0.98;;;;;;;18.60;91.94;102026.06;20816380;28;20037;-75
2022/07/10 18:51:06;;;;;;;1.58;0.77;;;;;;;18.49;91.96;101999.88;20963104;28;20553;-75
2022/07/10 19:01:14;;;;;;;2.05;1.00;;;;;;;18.57;92.01;102029.88;20962987;28;20055;-74
2022/07/10 19:11:16;;;;;;;0.88;0.60;;;;;;;18.51;92.49;102022.22;20964391;28;20046;-74
2022/07/10 19:21:18;;;;;;;2.17;0.90;;;;;;;18.56;92.19;102036.25;20961304;28;20122;-74
2022/07/10 19:31:19;;;;;;;1.10;0.85;;;;;;;18.57;92.37;102037.97;20862137;28;20044;-74
2022/07/10 19:41:21;;;;;;;1.85;1.02;;;;;;;18.56;92.42;102025.44;20904969;28;20052;-74
2022/07/10 19:51:23;;;;;;;1.20;0.88;;;;;;;18.57;92.61;102040.66;20968824;28;20083;-74
2022/07/10 20:01:24;;;;;;;1.20;0.80;;;;;;;18.56;92.71;102041.63;20976833;28;20036;-75
2022/07/10 20:11:26;;;;;;;0.82;0.77;;;;;;;18.16;92.76;101987.94;20976186;28;20054;-75
2022/07/10 20:21:28;;;;;;;3.08;1.10;;;;;;;18.47;92.79;102045.84;20973577;28;20045;-75
2022/07/10 20:31:29;;;;;;;1.88;1.10;;;;;;;18.56;92.81;102052.41;20975178;28;20144;-74
2022/07/10 20:41:31;;;;;;;2.00;0.90;;;;;;;18.56;92.83;102060.50;20924961;28;20388;-75
2022/07/10 20:51:33;;;;;;;1.52;1.00;;;;;;;18.34;93.07;102035.09;20971650;28;20098;-75
2022/07/10 21:01:35;;;;;;;1.30;1.13;;;;;;;18.51;93.11;102057.25;20967417;28;20052;-74
2022/07/10 21:11:37;;;;;;;1.40;1.00;;;;;;;18.48;92.95;102058.38;20936017;28;20106;-75
2022/07/10 21:21:39;;;;;;;1.10;0.80;;;;;;;18.55;93.04;102074.94;20968848;28;20465;-75
2022/07/10 21:31:41;;;;;;;2.13;1.17;;;;;;;18.55;92.87;102080.34;20951818;28;20052;-74
2022/07/10 21:41:43;;;;;;;2.80;0.90;;;;;;;18.55;92.94;102074.94;20958004;28;20068;-74
2022/07/10 21:51:44;;;;;;;1.63;1.00;;;;;;;18.53;92.93;102076.88;20966095;28;20048;-75
2022/07/10 22:01:46;;;;;;;2.33;1.00;;;;;;;18.54;93.17;102074.09;20967429;28;20045;-74
2022/07/10 22:11:48;;;;;;;1.65;0.90;;;;;;;18.46;92.97;102064.81;20966206;28;20044;-75
2022/07/10 22:21:49;;;;;;;1.45;1.00;;;;;;;18.54;92.96;102078.59;20966090;28;20131;-75
2022/07/10 22:31:51;;;;;;;1.48;0.80;;;;;;;18.54;93.17;102067.81;20959511;28;20059;-74
2022/07/10 22:41:53;;;;;;;1.25;0.90;;;;;;;18.38;93.21;102044.69;20954617;28;20052;-75
2022/07/10 22:51:56;;;;;;;1.10;1.00;;;;;;;18.53;93.35;102079.59;20962551;28;20550;-74
2022/07/10 23:01:57;;;;;;;1.42;0.80;;;;;;;18.53;93.33;102072.38;20963650;28;20447;-74
2022/07/10 23:11:59;;;;;;;1.83;0.85;;;;;;;18.44;93.37;102056.00;20962428;28;20404;-75
2022/07/10 23:22:01;;;;;;;1.77;1.15;;;;;;;18.44;93.46;102056.00;20963045;28;20048;-75
2022/07/10 23:32:03;;;;;;;1.67;0.90;;;;;;;18.36;93.35;102040.41;20963733;28;20478;-74
2022/07/10 23:42:05;;;;;;;1.25;0.80;;;;;;;18.27;93.25;102023.03;20977547;28;20045;-74
2022/07/10 23:52:06;;;;;;;1.23;0.70;;;;;;;18.52;93.51;102054.47;20976417;28;20049;-74
